Winter, Wisconsin
Current Conditions -  °F | °C
As of 10:15 AM on Monday 24 Nov 2014 (Local Time) from KRCX Reporting Station
Light Snow Light Snow  
Wind Chill: 21°   Ceiling: 900
Heat Index: 32°   Visibility: 1.5mi
Dew Point: 31°   Wind: 17mph
Humidity: 96%   Direction: 300°WNW
Pressure: 29.23"   Gusts: 24mph
Location:  45.82°N, 91.01°W
Report Text: KRCX 241615Z AUTO 30015G21KT 1 1/2SM -SN BKN009 OVC015 00/00 A2923 RMK AO2 T00001005
Loading
Personal Weather Stations






























Interactive Weather Map New forecast layout! Learn more

10-Day Weather Forecast

Advertisements
Track Severe Weather on mobile